Tiempo atmosférico en la estación meteorológica de Villanueva Del Fresno, Badajoz (247 m.)



Fecha
DESCASC
Temp. máxima en grados centígrados (hora)
DESCASC
Temp. mínima en grados centígrados (hora)
DESCASC
Temp. media en grados centígrados
DESCASC
Racha de viento máxima en m/sg (hora)
DESCASC
Velocidad máxima media en intervalos de 10 minutos(hora)
DESCASC
Precipitaciones diarias en mm
DESCASC
Precipitaciones de 00:00 a 06:00 en mm
DESCASC
Precipitaciones de 06:00 a 12:00 en mm
DESCASC
Precipitaciones de 12:00 a 18:00 en mm
DESCASC
Precipitaciones de 18:00 a 24:00 en mm
DESCASC
22-08-2019 36.4 (18:50) 19.1 (07:40) 27.8 11.67 (18:40) 6.67 (23:00) 0 0 0 0 0
21-08-2019 34.9 (17:50) 17.4 (07:40) 26.2 8.33 (12:40) 5 (13:00) 0 0 0 0 0
20-08-2019 34.3 (18:20) 14.3 (08:10) 24.3 9.72 (15:30) 5.83 (23:50) 0 0 0 0 0
19-08-2019 31.9 (18:20) 15.2 (08:10) 23.5 12.22 (21:10) 8.06 (22:10) 0 0 0 0 0
18-08-2019 33.8 (16:50) 16.6 (00:00) 25.2 10 (18:00) 6.67 (21:50) 0 0 0 0 0
17-08-2019 36.3 (19:00) 15.5 (00:00) 25.9 10.28 (16:50) 6.39 (23:10) 0 0 0 0 0
16-08-2019 37.4 (18:30) 18.2 (00:00) 27.8 10 (18:50) 5 (20:10) 0 0 0 0 0
15-08-2019 38.5 (18:30) 18.2 (00:00) 28.4 9.72 (22:20) 6.11 (22:20) 0 0 0 0 0
14-08-2019 36.7 (18:40) 15.7 (00:00) 26.2 10 (23:00) 6.39 (22:30) 0 0 0 0 0
13-08-2019 34.5 (17:40) 14.6 (00:00) 24.6 8.89 (01:30) 5.83 (01:30) 0 0 0 0 0
12-08-2019 30.1 (17:20) 12.8 (00:00) 21.5 10.83 (16:50) 6.39 (12:30) 0 0 0 0 0
11-08-2019 27.4 (17:50) 14.8 (00:00) 21.1 11.11 (17:00) 7.22 (22:20) 0 0 0 0 0
10-08-2019 31.1 (18:00) 16.3 (00:00) 23.7 10.28 (22:30) 6.67 (19:50) 0 0 0 0 0
09-08-2019 28 (17:40) 21.6 (00:00) 24.8 10.56 (14:30) 6.94 (15:00) 0 0 0 0 0
08-08-2019 32.5 (17:30) 17.9 (00:00) 25.2 11.94 (19:30) 7.22 (21:00) 0 0 0 0 0
07-08-2019 29.5 (19:30) 18.5 (00:00) 24 6.11 (12:20) 3.61 (20:10) 0 0 0 0 0
06-08-2019 33.6 (18:40) 15.9 (00:00) 24.7 8.61 (20:10) 6.11 (20:20) 0 0 0 0 0
05-08-2019 34.8 (18:10) 14.2 (00:00) 24.5 10 (19:00) 5.56 (23:59) 0 0 0 0 0
04-08-2019 34.6 (18:00) 16.4 (00:00) 25.5 8.61 (15:00) 5.56 (21:10) 0 0 0 0 0
03-08-2019 34.1 (19:00) 14.8 (00:00) 24.4 9.72 (22:20) 6.67 (22:20) 0 0 0 0 0
02-08-2019 34.3 (18:00) 13.7 (00:00) 24 8.06 (23:00) 5 (22:40) 0 0 0 0 0
01-08-2019 34.5 (18:40) 15.2 (00:00) 24.8 9.72 (21:00) 6.39 (21:00) 0 0 0 0 0
31-07-2019 35.4 (18:30) 14 (00:00) 24.7 11.39 (20:30) 8.06 (21:00) 0 0 0 0 0
30-07-2019 31.8 (18:20) 13.4 (00:00) 22.6 10.28 (22:40) 7.22 (23:20) 0 0 0 0 0
29-07-2019 30.8 (17:50) 14.7 (00:00) 22.7 10.28 (12:10) 6.94 (20:40) 0 0 0 0 0
28-07-2019 32.1 (19:10) 14.4 (00:00) 23.2 12.78 (17:30) 6.94 (22:20) 0 0 0 0 0
27-07-2019 26.1 (19:00) 15.9 (00:00) 21 11.94 (17:50) 8.33 (17:30) 0 0 0 0 0
26-07-2019 29.4 (17:40) 14.6 (00:00) 22 11.11 (19:40) 6.94 (20:50) 0 0 0 0 0

Gráficas

Temp. máximas Temp. mínimas Temp. medias Precipitaciones Rachas de viento máximas Velocidades máximas media en intervalos de 10 minutos

Datos horarios

Fecha y hora oficial Temperatura (ºC) Velocidad del viento (km/h) Dirección del viento Racha (km/h) Dirección de racha Precipitación (mm) Presión (hPa) Tendencia (hPa) Humedad (%)
2019-08-24 23:00:00 30.2 24 Norte 34 Norte 0 -- -- 36
2019-08-24 22:00:00 31.8 22 Noroeste 35 Noroeste 0 -- -- 35
2019-08-24 21:00:00 33.8 15 Oeste 24 Oeste 0 -- -- 31
2019-08-24 20:00:00 36.4 9 Norte 21 Noroeste 0 -- -- 23
2019-08-24 19:00:00 37 9 Noroeste 21 Noroeste 0 -- -- 23
2019-08-24 18:00:00 37.2 12 Noroeste 29 Oeste 0 -- -- 23
2019-08-24 17:00:00 36.1 12 Oeste 22 Sudoeste 0 -- -- 26
2019-08-24 16:00:00 34.9 15 Oeste 26 Oeste 0 -- -- 29
2019-08-24 15:00:00 33.9 14 Oeste 23 Oeste 0 -- -- 30
2019-08-24 14:00:00 32.3 13 Oeste 27 Sudoeste 0 -- -- 33
2019-08-24 13:00:00 30.5 13 Sudoeste 25 Sudoeste 0 -- -- 40
2019-08-24 12:00:00 29 12 Oeste 21 Oeste 0 -- -- 42
2019-08-24 11:00:00 27.2 10 Sudoeste 17 Sudoeste 0 -- -- 46
2019-08-24 10:00:00 25 7 Sudoeste 14 Sur 0 -- -- 50
2019-08-24 09:00:00 22.2 5 Sur 6 Sudoeste 0 -- -- 54
2019-08-24 08:00:00 21.2 4 Sudoeste 6 Sudoeste 0 -- -- 54
2019-08-24 07:00:00 21.8 5 Sudoeste 14 Sur 0 -- -- 52
2019-08-24 06:00:00 22 5 Sur 12 Sur 0 -- -- 51
2019-08-24 05:00:00 22.9 5 Sudoeste 13 Sur 0 -- -- 51
2019-08-24 04:00:00 24 9 Sur 16 Sur 0 -- -- 49
2019-08-24 03:00:00 24.6 8 Sudeste 13 Sur 0 -- -- 49
2019-08-24 02:00:00 25.8 9 Sur 14 Sur 0 -- -- 46
2019-08-24 01:00:00 27.9 10 Sudoeste 21 Sudoeste 0 -- -- 42
2019-08-24 00:00:00 30.4 15 Sur 25 Sur 0 -- -- 35
2019-08-23 23:00:00 31.4 12 Sur 19 Sur 0 -- -- 32
2019-08-23 22:00:00 32.9 8 Este 16 Nordeste 0 -- -- 29
2019-08-23 21:00:00 35.6 3 Sur 9 Noroeste 0 -- -- 26
2019-08-23 20:00:00 37 6 Norte 21 Sudeste 0 -- -- 23
2019-08-23 19:00:00 38 5 Sur 29 Sudeste 0 -- -- 22
2019-08-23 18:00:00 38.1 8 Norte 26 Sudeste 0 -- -- 22
2019-08-23 17:00:00 37.5 16 Sudeste 30 Sudeste 0 -- -- 23
2019-08-23 16:00:00 35.6 12 Este 31 Sudeste 0 -- -- 25
2019-08-23 15:00:00 35.9 10 Noroeste 27 Sur 0 -- -- 26
2019-08-23 14:00:00 34.5 10 Sudeste 26 Sudeste 0 -- -- 30
2019-08-23 13:00:00 32.8 12 Sudeste 22 Sur 0 -- -- 32
2019-08-23 12:00:00 31 16 Sudeste 30 Sur 0 -- -- 35
2019-08-23 11:00:00 28.8 17 Sur 24 Sudeste 0 -- -- 41
2019-08-23 10:00:00 26.4 9 Sudeste 15 Sudeste 0 -- -- 52
2019-08-23 09:00:00 23.4 6 Sudeste 12 Sur 0 -- -- 60
2019-08-23 08:00:00 21.5 5 Sur 11 Sudeste 0 -- -- 63
2019-08-23 07:00:00 21.9 4 Sur 10 Sudeste 0 -- -- 59
2019-08-23 06:00:00 22.3 5 Sudoeste 13 Sudoeste 0 -- -- 56
2019-08-23 05:00:00 22.8 8 Sur 17 Sur 0 -- -- 54
2019-08-23 04:00:00 22.9 9 Sur 14 Sur 0 -- -- 51
2019-08-23 03:00:00 23.7 9 Sur 15 Sur 0 -- -- 48
2019-08-23 02:00:00 24.5 8 Sudoeste 19 Sudoeste 0 -- -- 47
2019-08-23 01:00:00 25.7 13 Sudoeste 24 Sudoeste 0 -- -- 43
2019-08-23 00:00:00 27.7 15 Sudoeste 29 Sudoeste 0 -- -- 40
2019-08-22 23:00:00 30.2 24 Sudoeste 37 Sudoeste 0 -- -- 39
2019-08-22 22:00:00 33.2 15 Este 28 Este 0 -- -- 26
2019-08-22 21:00:00 34.1 15 Nordeste 29 Nordeste 0 -- -- 27
2019-08-22 20:00:00 35.5 15 Nordeste 23 Nordeste 0 -- -- 26
2019-08-22 19:00:00 35.6 14 Este 42 Sudeste 0 -- -- 27
2019-08-22 18:00:00 35.6 15 Este 38 Este 0 -- -- 27
2019-08-22 17:00:00 35.5 16 Este 33 Este 0 -- -- 28
2019-08-22 16:00:00 35.1 10 Este 27 Este 0 -- -- 29
2019-08-22 15:00:00 35.1 12 Nordeste 30 Este 0 -- -- 29
2019-08-22 14:00:00 33.6 13 Nordeste 21 Este 0 -- -- 34
2019-08-22 13:00:00 31.8 5 Nordeste 19 Norte 0 -- -- 39
2019-08-22 12:00:00 29.1 5 Norte 13 Noroeste 0 -- -- 45
2019-08-22 11:00:00 26.9 4 Sudoeste 12 Sudeste 0 -- -- 51
2019-08-22 10:00:00 24.7 6 Este 12 Sudeste 0 -- -- 49
2019-08-22 09:00:00 21.6 6 Sudeste 12 Sudeste 0 -- -- 55
2019-08-22 08:00:00 19.6 5 Sudeste 8 Sudeste 0 -- -- 60
2019-08-22 07:00:00 19.7 2 Este 14 Sudeste 0 -- -- 57
2019-08-22 06:00:00 20.3 6 Sur 9 Sur 0 -- -- 56
2019-08-22 05:00:00 20.3 3 Sudoeste 19 Sur 0 -- -- 55
2019-08-22 04:00:00 21.2 4 Nordeste 12 Sudeste 0 -- -- 53
2019-08-22 03:00:00 22.1 8 Sudeste 17 Sudeste 0 -- -- 52
2019-08-22 02:00:00 23.4 5 Sur 9 Sur 0 -- -- 48
2019-08-22 01:00:00 24.4 0 Calma 13 Sudoeste 0 -- -- 44
2019-08-22 00:00:00 26.2 5 Oeste 14 Noroeste 0 -- -- 34
2019-08-21 23:00:00 28.3 9 Este 10 Este 0 -- -- 27
2019-08-21 22:00:00 30.3 6 Norte 10 Norte 0 -- -- 25
2019-08-21 21:00:00 33 8 Noroeste 15 Norte 0 -- -- 23
2019-08-21 20:00:00 34.6 9 Noroeste 19 Oeste 0 -- -- 24
2019-08-21 19:00:00 34.7 12 Oeste 22 Oeste 0 -- -- 27
2019-08-21 18:00:00 34.7 9 Oeste 21 Noroeste 0 -- -- 28
2019-08-21 17:00:00 34.2 14 Oeste 25 Noroeste 0 -- -- 30
2019-08-21 16:00:00 33.9 8 Noroeste 27 Oeste 0 -- -- 33
2019-08-21 15:00:00 32.6 13 Oeste 28 Oeste 0 -- -- 35
2019-08-21 14:00:00 31.4 18 Oeste 28 Oeste 0 -- -- 39
2019-08-21 13:00:00 30 18 Oeste 30 Oeste 0 -- -- 43
2019-08-21 12:00:00 27.9 16 Oeste 24 Sudoeste 0 -- -- 50
2019-08-21 11:00:00 25 12 Sudoeste 20 Sudoeste 0 -- -- 54
2019-08-21 10:00:00 21.7 2 Sur 8 Sudoeste 0 -- -- 53
2019-08-21 09:00:00 19.7 6 Sudeste 8 Sudeste 0 -- -- 50
2019-08-21 08:00:00 17.6 5 Sudeste 10 Sur 0 -- -- 57
2019-08-21 07:00:00 18 4 Sudeste 8 Sudeste 0 -- -- 54
2019-08-21 06:00:00 18.5 5 Sudeste 9 Sudeste 0 -- -- 55
2019-08-21 05:00:00 18.5 2 Sudeste 6 Este 0 -- -- 59
2019-08-21 04:00:00 20.4 3 Nordeste 10 Norte 0 -- -- 60
2019-08-21 03:00:00 21 6 Norte 8 Norte 0 -- -- 57
2019-08-21 02:00:00 21.9 4 Sur 6 Oeste 0 -- -- 52
2019-08-21 01:00:00 24.5 12 Nordeste 23 Norte 0 -- -- 48
2019-08-21 00:00:00 26 17 Norte 30 Norte 0 -- -- 39
2019-08-20 23:00:00 27.3 9 Nordeste 15 Nordeste 0 -- -- 28
2019-08-20 22:00:00 29.1 12 Nordeste 15 Nordeste 0 -- -- 25
2019-08-20 21:00:00 31.5 11 Nordeste 22 Nordeste 0 -- -- 21
2019-08-20 20:00:00 33 14 Nordeste 24 Este 0 -- -- 21
2019-08-20 19:00:00 33.9 13 Nordeste 28 Norte 0 -- -- 22
2019-08-20 18:00:00 33.6 14 Nordeste 26 Norte 0 -- -- 21
2019-08-20 17:00:00 33.5 10 Nordeste 30 Este 0 -- -- 25
2019-08-20 16:00:00 32.7 10 Este 35 Nordeste 0 -- -- 26
2019-08-20 15:00:00 31.4 11 Este 24 Nordeste 0 -- -- 31
2019-08-20 14:00:00 28.9 12 Norte 20 Nordeste 0 -- -- 38
2019-08-20 13:00:00 26.5 10 Norte 18 Norte 0 -- -- 44
2019-08-20 12:00:00 23.3 8 Norte 15 Norte 0 -- -- 53
2019-08-20 11:00:00 20.3 6 Norte 10 Norte 0 -- -- 62
2019-08-20 10:00:00 18 4 Nordeste 9 Nordeste 0 -- -- 71
2019-08-20 09:00:00 15.1 4 Norte 10 Norte 0 -- -- 83
2019-08-20 08:00:00 14.4 4 Norte 19 Norte 0 -- -- 83
2019-08-20 07:00:00 15.4 9 Norte 16 Noroeste 0 -- -- 79
2019-08-20 06:00:00 16.3 9 Noroeste 15 Noroeste 0 -- -- 74
2019-08-20 05:00:00 16.7 10 Noroeste 17 Noroeste 0 -- -- 69
2019-08-20 04:00:00 17.6 8 Noroeste 14 Noroeste 0 -- -- 62
2019-08-20 03:00:00 17.9 7 Noroeste 13 Noroeste 0 -- -- 59
2019-08-20 02:00:00 18.5 5 Noroeste 17 Norte 0 -- -- 52
2019-08-20 01:00:00 19.7 12 Noroeste 22 Norte 0 -- -- 45
2019-08-20 00:00:00 21.1 10 Norte 19 Norte 0 -- -- 44
2019-08-19 23:00:00 22.4 17 Norte 42 Norte 0 -- -- 42
2019-08-19 22:00:00 24.4 28 Norte 44 Norte 0 -- -- 40
2019-08-19 21:00:00 29.2 17 Noroeste 26 Noroeste 0 -- -- 25
2019-08-19 20:00:00 30.8 15 Noroeste 32 Oeste 0 -- -- 20
2019-08-19 19:00:00 31.5 17 Oeste 31 Oeste 0 -- -- 18
2019-08-19 18:00:00 31.6 13 Oeste 28 Noroeste 0 -- -- 20
2019-08-19 17:00:00 31.3 14 Noroeste 26 Oeste 0 -- -- 21
2019-08-19 16:00:00 30.4 13 Noroeste 27 Oeste 0 -- -- 23
2019-08-19 15:00:00 29 16 Oeste 27 Oeste 0 -- -- 26
2019-08-19 14:00:00 26.9 14 Oeste 23 Oeste 0 -- -- 37
2019-08-19 13:00:00 25.2 10 Oeste 18 Oeste 0 -- -- 41
2019-08-19 12:00:00 23 8 Noroeste 22 Oeste 0 -- -- 47
2019-08-19 11:00:00 20.3 7 Oeste 13 Oeste 0 -- -- 59
2019-08-19 10:00:00 18.1 4 Sudoeste 9 Oeste 0 -- -- 67
2019-08-19 09:00:00 16.6 2 Sudoeste 7 Norte 0 -- -- 72
2019-08-19 08:00:00 15.3 3 Nordeste 8 Noroeste 0 -- -- 76
2019-08-19 07:00:00 15.9 2 Nordeste 13 Norte 0 -- -- 75
2019-08-19 06:00:00 16.8 6 Norte 15 Norte 0 -- -- 75
2019-08-19 05:00:00 18.1 8 Norte 13 Norte 0 -- -- 73
2019-08-19 04:00:00 19.1 9 Noroeste 17 Noroeste 0 -- -- 71
2019-08-19 03:00:00 20.5 5 Noroeste 18 Norte 0 -- -- 73
2019-08-19 02:00:00 21.5 9 Norte 24 Norte 0 -- -- 73
2019-08-19 01:00:00 23.2 10 Norte 26 Norte 0 -- -- 70
2019-08-19 00:00:00 24.4 13 Norte 31 Norte 0 -- -- 66
2019-08-18 23:00:00 25.7 23 Norte 33 Noroeste 0 -- -- 63
2019-08-18 22:00:00 27.5 24 Norte 34 Norte 0 -- -- 56
2019-08-18 21:00:00 30.4 14 Noroeste 26 Noroeste 0 -- -- 41
2019-08-18 20:00:00 31.9 18 Noroeste 31 Noroeste 0 -- -- 37
2019-08-18 19:00:00 32.6 17 Noroeste 29 Noroeste 0 -- -- 33
2019-08-18 18:00:00 33 20 Noroeste 36 Noroeste 0 -- -- 32
2019-08-18 17:00:00 33.4 18 Noroeste 32 Noroeste 0 -- -- 30
2019-08-18 16:00:00 32.7 11 Noroeste 32 Norte 0 -- -- 35
2019-08-18 15:00:00 31.1 14 Noroeste 26 Noroeste 0 -- -- 38
2019-08-18 14:00:00 29.2 13 Oeste 28 Noroeste 0 -- -- 43
2019-08-18 13:00:00 27.4 14 Noroeste 22 Noroeste 0 -- -- 48
2019-08-18 12:00:00 24.8 8 Norte 17 Noroeste 0 -- -- 57
2019-08-18 11:00:00 22.5 5 Oeste 12 Sudoeste 0 -- -- 67
2019-08-18 10:00:00 20.5 4 Norte 10 Norte 0 -- -- 76
2019-08-18 09:00:00 18.5 6 Norte 14 Norte 0 -- -- 85
2019-08-18 08:00:00 16.7 10 Norte 17 Norte 0 -- -- 89
2019-08-18 07:00:00 16.9 8 Norte 11 Norte 0 -- -- 82
2019-08-18 06:00:00 17.5 3 Este 5 Este 0 -- -- 78
2019-08-18 05:00:00 18.7 3 Oeste 9 Norte 0 -- -- 71
2019-08-18 04:00:00 19.9 7 Norte 10 Norte 0 -- -- 66
2019-08-18 03:00:00 21.1 4 Noroeste 10 Norte 0 -- -- 59
2019-08-18 02:00:00 22.7 6 Norte 14 Norte 0 -- -- 53
2019-08-18 01:00:00 24.4 8 Norte 17 Noroeste 0 -- -- 54
2019-08-18 00:00:00 26.2 9 Noroeste 35 Noroeste 0 -- -- 52
2019-08-17 23:00:00 28.7 21 Norte 32 Norte 0 -- -- 47
2019-08-17 22:00:00 30.7 17 Noroeste 26 Oeste 0 -- -- 40
2019-08-17 21:00:00 34.1 9 Oeste 24 Oeste 0 -- -- 22
2019-08-17 20:00:00 35.4 17 Oeste 27 Oeste 0 -- -- 20
2019-08-17 19:00:00 36.3 15 Sudoeste 25 Oeste 0 -- -- 18
2019-08-17 18:00:00 36.2 17 Oeste 32 Oeste 0 -- -- 15
2019-08-17 17:00:00 35.1 19 Oeste 37 Oeste 0 -- -- 20
2019-08-17 16:00:00 33.9 17 Oeste 24 Oeste 0 -- -- 26
2019-08-17 15:00:00 32.9 14 Oeste 24 Oeste 0 -- -- 24
2019-08-17 14:00:00 30.3 10 Oeste 21 Oeste 0 -- -- 36
2019-08-17 13:00:00 27.6 9 Oeste 15 Oeste 0 -- -- 44
2019-08-17 12:00:00 24.5 6 Oeste 12 Oeste 0 -- -- 54
2019-08-17 11:00:00 22.1 5 Oeste 11 Sudoeste 0 -- -- 61
2019-08-17 10:00:00 19.8 5 Oeste 8 Oeste 0 -- -- 69
2019-08-17 09:00:00 18.1 0 Calma 4 Norte 0 -- -- 79
2019-08-17 08:00:00 15.6 3 Nordeste 8 Nordeste 0 -- -- 85
2019-08-17 07:00:00 16.4 4 Norte 6 Norte 0 -- -- 80
2019-08-17 06:00:00 17.1 3 Norte 6 Norte 0 -- -- 74
2019-08-17 05:00:00 18.7 2 Noroeste 10 Noroeste 0 -- -- 67
2019-08-17 04:00:00 19.8 6 Noroeste 11 Noroeste 0 -- -- 63
2019-08-17 03:00:00 21.1 5 Noroeste 14 Noroeste 0 -- -- 57
2019-08-17 02:00:00 22.6 10 Norte 15 Noroeste 0 -- -- 51
2019-08-17 01:00:00 24.4 5 Noroeste 13 Noroeste 0 -- -- 45
2019-08-17 00:00:00 26.3 8 Noroeste 17 Norte 0 -- -- 39
2019-08-16 23:00:00 28.2 12 Noroeste 26 Norte 0 -- -- 34
2019-08-16 22:00:00 30.6 16 Norte 30 Noroeste 0 -- -- 32
2019-08-16 21:00:00 34.3 15 Noroeste 30 Noroeste 0 -- -- 27
2019-08-16 20:00:00 36.5 18 Noroeste 30 Oeste 0 -- -- 23
2019-08-16 19:00:00 37.1 15 Noroeste 36 Noroeste 0 -- -- 23
2019-08-16 18:00:00 37.1 14 Noroeste 27 Oeste 0 -- -- 25
2019-08-16 17:00:00 36.5 13 Oeste 28 Sudoeste 0 -- -- 26
2019-08-16 16:00:00 35.6 13 Oeste 24 Noroeste 0 -- -- 29
2019-08-16 15:00:00 34 9 Noroeste 27 Noroeste 0 -- -- 33
2019-08-16 14:00:00 32.4 13 Oeste 22 Oeste 0 -- -- 39
2019-08-16 13:00:00 30 8 Oeste 18 Oeste 0 -- -- 43
2019-08-16 12:00:00 27.8 5 Noroeste 13 Norte 0 -- -- 48
2019-08-16 11:00:00 24.8 6 Oeste 10 Oeste 0 -- -- 55
2019-08-16 10:00:00 22.7 5 Sudoeste 9 Sudoeste 0 -- -- 62
2019-08-16 09:00:00 20 5 Norte 10 Norte 0 -- -- 71
2019-08-16 08:00:00 18.3 2 Nordeste 6 Norte 0 -- -- 75
2019-08-16 07:00:00 19.1 2 Nordeste 13 Norte 0 -- -- 73
2019-08-16 06:00:00 20 7 Norte 12 Norte 0 -- -- 70
2019-08-16 05:00:00 21.1 5 Norte 8 Norte 0 -- -- 67
2019-08-16 04:00:00 21.7 4 Norte 9 Norte 0 -- -- 65
2019-08-16 03:00:00 22.7 6 Norte 12 Norte 0 -- -- 62
2019-08-16 02:00:00 24 7 Norte 12 Norte 0 -- -- 56
2019-08-16 01:00:00 25.5 8 Norte 13 Norte 0 -- -- 50
2019-08-16 00:00:00 27.4 9 Norte 30 Norte 0 -- -- 44
2019-08-15 23:00:00 29.6 17 Norte 35 Norte 0 -- -- 37
2019-08-15 22:00:00 32.6 15 Norte 29 Norte 0 -- -- 29
2019-08-15 21:00:00 36.2 12 Norte 21 Noroeste 0 -- -- 23
2019-08-15 20:00:00 37.4 15 Noroeste 26 Oeste 0 -- -- 24
2019-08-15 19:00:00 37.9 14 Noroeste 25 Noroeste 0 -- -- 25
2019-08-15 18:00:00 37.9 9 Nordeste 27 Norte 0 -- -- 25
2019-08-15 17:00:00 37.5 13 Oeste 29 Norte 0 -- -- 24
2019-08-15 16:00:00 37.2 18 Norte 27 Norte 0 -- -- 26
2019-08-15 15:00:00 36.5 12 Noroeste 29 Nordeste 0 -- -- 26
2019-08-15 14:00:00 35.3 9 Noroeste 22 Este 0 -- -- 36
2019-08-15 13:00:00 32.9 10 Noroeste 15 Norte 0 -- -- 40
2019-08-15 12:00:00 29.9 7 Norte 13 Norte 0 -- -- 48
2019-08-15 11:00:00 26.4 7 Nordeste 12 Norte 0 -- -- 58
2019-08-15 10:00:00 22.9 7 Norte 13 Norte 0 -- -- 71
2019-08-15 09:00:00 20.7 3 Norte 7 Norte 0 -- -- 79
2019-08-15 08:00:00 18.2 3 Nordeste 5 Nordeste 0 -- -- 85
2019-08-15 07:00:00 18.4 4 Nordeste 6 Nordeste 0 -- -- 82
2019-08-15 06:00:00 19.3 2 Norte 7 Norte 0 -- -- 79
2019-08-15 05:00:00 20.1 5 Norte 8 Nordeste 0 -- -- 75
2019-08-15 04:00:00 20.7 5 Nordeste 8 Nordeste 0 -- -- 73
2019-08-15 03:00:00 22.1 4 Norte 8 Nordeste 0 -- -- 68
2019-08-15 02:00:00 23.3 6 Norte 12 Norte 0 -- -- 64
2019-08-15 01:00:00 25.2 8 Norte 29 Norte 0 -- -- 58
2019-08-15 00:00:00 26.8 20 Norte 33 Norte 0 -- -- 50
2019-08-14 23:00:00 28.6 21 Norte 36 Norte 0 -- -- 41
2019-08-14 22:00:00 31.3 15 Norte 22 Norte 0 -- -- 27
2019-08-14 21:00:00 34.1 17 Norte 24 Norte 0 -- -- 21
2019-08-14 20:00:00 35.9 10 Noroeste 28 Noroeste 0 -- -- 19
2019-08-14 19:00:00 36.4 15 Noroeste 23 Oeste 0 -- -- 19
2019-08-14 18:00:00 36.3 8 Oeste 28 Noroeste 0 -- -- 18
2019-08-14 17:00:00 36.3 18 Norte 30 Noroeste 0 -- -- 18
2019-08-14 16:00:00 35.7 14 Noroeste 27 Noroeste 0 -- -- 18
2019-08-14 15:00:00 35.1 9 Noroeste 21 Noroeste 0 -- -- 20
2019-08-14 14:00:00 34 10 Oeste 18 Oeste 0 -- -- 22
2019-08-14 13:00:00 31.3 6 Noroeste 13 Norte 0 -- -- 26
2019-08-14 12:00:00 28.1 9 Noroeste 14 Noroeste 0 -- -- 33
2019-08-14 11:00:00 24.6 4 Noroeste 7 Noroeste 0 -- -- 42
2019-08-14 10:00:00 21.3 4 Sudoeste 6 Sudoeste 0 -- -- 50
2019-08-14 09:00:00 18.5 0 Calma 4 Este 0 -- -- 58
2019-08-14 08:00:00 15.7 6 Este 15 Nordeste 0 -- -- 66
2019-08-14 07:00:00 16.9 10 Nordeste 17 Nordeste 0 -- -- 62
2019-08-14 06:00:00 16.9 2 Nordeste 13 Nordeste 0 -- -- 62
2019-08-14 05:00:00 18.1 6 Nordeste 14 Nordeste 0 -- -- 59
2019-08-14 04:00:00 18.7 9 Nordeste 13 Nordeste 0 -- -- 57
2019-08-14 03:00:00 19.5 3 Nordeste 6 Norte 0 -- -- 53
2019-08-14 02:00:00 20.9 3 Nordeste 9 Norte 0 -- -- 51
2019-08-14 01:00:00 22.7 0 Calma 21 Norte 0 -- -- 47
2019-08-14 00:00:00 24.7 15 Norte 26 Norte 0 -- -- 43
2019-08-13 23:00:00 27.1 18 Norte 26 Norte 0 -- -- 35
2019-08-13 22:00:00 28.6 9 Nordeste 12 Nordeste 0 -- -- 20
2019-08-13 21:00:00 31.8 7 Nordeste 19 Nordeste 0 -- -- 18
2019-08-13 20:00:00 33.2 8 Nordeste 22 Nordeste 0 -- -- 17
2019-08-13 19:00:00 33.9 12 Norte 23 Norte 0 -- -- 15
2019-08-13 18:00:00 34.3 7 Noroeste 24 Norte 0 -- -- 15
2019-08-13 17:00:00 33.6 12 Nordeste 22 Norte 0 -- -- 17
2019-08-13 16:00:00 33.3 9 Nordeste 21 Noroeste 0 -- -- 18
2019-08-13 15:00:00 32.2 9 Noroeste 19 Norte 0 -- -- 18
2019-08-13 14:00:00 31.1 9 Noroeste 21 Norte 0 -- -- 22
2019-08-13 13:00:00 29 12 Norte 19 Noroeste 0 -- -- 26
2019-08-13 12:00:00 26.7 7 Norte 17 Norte 0 -- -- 31
2019-08-13 11:00:00 23.5 10 Norte 16 Nordeste 0 -- -- 39
2019-08-13 10:00:00 20.7 8 Norte 14 Norte 0 -- -- 49
2019-08-13 09:00:00 16.2 3 Norte 10 Norte 0 -- -- 68
2019-08-13 08:00:00 14.6 6 Nordeste 13 Norte 0 -- -- 74
2019-08-13 07:00:00 14.7 0 Calma 10 Nordeste 0 -- -- 73
2019-08-13 06:00:00 15.3 5 Nordeste 15 Nordeste 0 -- -- 70
2019-08-13 05:00:00 16.4 10 Nordeste 16 Nordeste 0 -- -- 67
2019-08-13 04:00:00 17.1 4 Este 18 Nordeste 0 -- -- 64
2019-08-13 03:00:00 18.4 10 Norte 28 Norte 0 -- -- 60
2019-08-13 02:00:00 19.9 17 Nordeste 32 Norte 0 -- -- 55
2019-08-13 01:00:00 20.7 15 Norte 26 Norte 0 -- -- 52
2019-08-13 00:00:00 22.6 17 Norte 25 Norte 0 -- -- 40
2019-08-12 23:00:00 24.4 7 Nordeste 11 Nordeste 0 -- -- 23
2019-08-12 22:00:00 25.5 8 Nordeste 15 Nordeste 0 -- -- 23
2019-08-12 21:00:00 28.3 8 Nordeste 27 Norte 0 -- -- 20
2019-08-12 20:00:00 28.9 13 Nordeste 30 Nordeste 0 -- -- 20
2019-08-12 19:00:00 29 20 Nordeste 32 Norte 0 -- -- 22
2019-08-12 18:00:00 29.3 16 Nordeste 36 Norte 0 -- -- 21
2019-08-12 17:00:00 29.7 19 Nordeste 39 Nordeste 0 -- -- 20
2019-08-12 16:00:00 29.1 19 Nordeste 36 Nordeste 0 -- -- 20
2019-08-12 15:00:00 27.7 20 Nordeste 33 Nordeste 0 -- -- 23
2019-08-12 14:00:00 26.3 21 Norte 35 Nordeste 0 -- -- 29
2019-08-12 13:00:00 25 23 Nordeste 37 Nordeste 0 -- -- 32
2019-08-12 12:00:00 23.4 21 Nordeste 32 Nordeste 0 -- -- 38
2019-08-12 11:00:00 21.1 14 Nordeste 28 Nordeste 0 -- -- 46
2019-08-12 10:00:00 18 12 Nordeste 24 Nordeste 0 -- -- 58
2019-08-12 09:00:00 14.9 8 Nordeste 19 Norte 0 -- -- 71
2019-08-12 08:00:00 13 12 Nordeste 17 Norte 0 -- -- 79
2019-08-12 07:00:00 13 9 Nordeste 14 Nordeste 0 -- -- 78
2019-08-12 06:00:00 13.9 10 Nordeste 16 Nordeste 0 -- -- 75
2019-08-12 05:00:00 14.7 9 Norte 15 Norte 0 -- -- 71
2019-08-12 04:00:00 15.8 10 Norte 23 Norte 0 -- -- 67
2019-08-12 03:00:00 16.6 9 Norte 22 Norte 0 -- -- 65
2019-08-12 02:00:00 17.7 14 Norte 23 Norte 0 -- -- 61
2019-08-12 01:00:00 18.6 14 Norte 27 Norte 0 -- -- 56
2019-08-12 00:00:00 20 22 Norte 37 Noroeste 0 -- -- 50
2019-08-11 23:00:00 21.5 23 Norte 37 Norte 0 -- -- 43
2019-08-11 22:00:00 23.2 22 Norte 35 Norte 0 -- -- 38
2019-08-11 21:00:00 25 21 Norte 35 Norte 0 -- -- 35
2019-08-11 20:00:00 26.9 22 Norte 37 Noroeste 0 -- -- 32
2019-08-11 19:00:00 26.7 21 Norte 38 Norte 0 -- -- 32
2019-08-11 18:00:00 26.9 21 Noroeste 35 Norte 0 -- -- 29
2019-08-11 17:00:00 26.7 23 Norte 40 Norte 0 -- -- 32
2019-08-11 16:00:00 26.8 22 Noroeste 36 Noroeste 0 -- -- 31
2019-08-11 15:00:00 26.2 22 Norte 39 Noroeste 0 -- -- 34
2019-08-11 14:00:00 25.2 17 Norte 33 Noroeste 0 -- -- 37
2019-08-11 13:00:00 24.1 20 Norte 36 Noroeste 0 -- -- 35
2019-08-11 12:00:00 22.8 15 Norte 35 Norte 0 -- -- 41
2019-08-11 11:00:00 20.5 19 Noroeste 31 Norte 0 -- -- 47
2019-08-11 10:00:00 18.6 17 Norte 28 Noroeste 0 -- -- 60
2019-08-11 09:00:00 15.9 8 Noroeste 13 Noroeste 0 -- -- 75
2019-08-11 08:00:00 14.8 7 Noroeste 13 Noroeste 0 -- -- 79
2019-08-11 07:00:00 15.5 4 Noroeste 13 Noroeste 0 -- -- 75
2019-08-11 06:00:00 16.3 7 Noroeste 19 Norte 0 -- -- 69
2019-08-11 05:00:00 17.1 9 Noroeste 24 Noroeste 0 -- -- 63
2019-08-11 04:00:00 18.3 16 Noroeste 27 Noroeste 0 -- -- 60
2019-08-11 03:00:00 19 5 Norte 17 Noroeste 0 -- -- 55
2019-08-11 02:00:00 19.3 5 Norte 23 Noroeste 0 -- -- 57
2019-08-11 01:00:00 20.1 9 Noroeste 24 Noroeste 0 -- -- 56
2019-08-11 00:00:00 21.4 16 Norte 31 Noroeste 0 -- -- 55
2019-08-10 23:00:00 22.9 23 Norte 37 Noroeste 0 -- -- 52
2019-08-10 22:00:00 25.1 13 Noroeste 30 Norte 0 -- -- 43
2019-08-10 21:00:00 26.5 23 Noroeste 37 Noroeste 0 -- -- 39
2019-08-10 20:00:00 28.7 23 Noroeste 34 Noroeste 0 -- -- 34
2019-08-10 19:00:00 30.5 13 Noroeste 26 Noroeste 0 -- -- 27
2019-08-10 18:00:00 31.1 11 Norte 24 Noroeste 0 -- -- 23
2019-08-10 17:00:00 30.8 14 Noroeste 34 Norte 0 -- -- 26
2019-08-10 16:00:00 30.1 9 Noroeste 25 Noroeste 0 -- -- 28
2019-08-10 15:00:00 29.3 11 Norte 25 Norte 0 -- -- 29
2019-08-10 14:00:00 27.6 8 Noroeste 26 Norte 0 -- -- 35
2019-08-10 13:00:00 26.3 10 Norte 23 Norte 0 -- -- 37
2019-08-10 12:00:00 24.3 14 Norte 23 Norte 0 -- -- 45
2019-08-10 11:00:00 22.3 12 Norte 22 Norte 0 -- -- 54
2019-08-10 10:00:00 20.2 13 Norte 20 Norte 0 -- -- 64
2019-08-10 09:00:00 18.4 9 Nordeste 13 Norte 0 -- -- 79
2019-08-10 08:00:00 16.7 7 Nordeste 15 Nordeste 0 -- -- 84
2019-08-10 07:00:00 16.6 8 Nordeste 13 Nordeste 0 -- -- 84
2019-08-10 06:00:00 16.4 6 Este 8 Este 0 -- -- 84
2019-08-10 05:00:00 17.2 4 Nordeste 8 Norte 0 -- -- 80
2019-08-10 04:00:00 18.2 4 Norte 14 Norte -- -- -- 76
2019-08-10 03:00:00 19.3 10 Norte 20 Norte 0 -- -- 73
2019-08-10 02:00:00 20.6 12 Norte 19 Norte 0 -- -- 67
2019-08-10 01:00:00 21.4 8 Norte 12 Norte 0 -- -- 63
2019-08-10 00:00:00 22.3 7 Norte 12 Norte 0 -- -- 60
2019-08-09 23:00:00 23.3 7 Norte 16 Norte 0 -- -- 58
2019-08-09 22:00:00 24 10 Noroeste 24 Noroeste 0 -- -- 62
2019-08-09 21:00:00 25.8 14 Noroeste 23 Noroeste 0 -- -- 60
2019-08-09 20:00:00 27.2 15 Noroeste 23 Noroeste 0 -- -- 58
2019-08-09 19:00:00 27.6 15 Noroeste 27 Noroeste 0 -- -- 57
2019-08-09 18:00:00 27.2 12 Noroeste 27 Noroeste 0 -- -- 58
2019-08-09 17:00:00 27.7 17 Noroeste 29 Oeste 0 -- -- 58
2019-08-09 16:00:00 26 16 Noroeste 31 Noroeste 0 -- -- 68
2019-08-09 15:00:00 26 25 Noroeste 38 Oeste 0 -- -- 73
2019-08-09 14:00:00 26.8 19 Oeste 30 Noroeste 0 -- -- 67
2019-08-09 13:00:00 26.4 18 Oeste 27 Oeste 0 -- -- 67
2019-08-09 12:00:00 24.8 14 Sudoeste 27 Oeste 0 -- -- 73
2019-08-09 11:00:00 23.8 16 Sudoeste 23 Sudoeste 0 -- -- 77
2019-08-09 10:00:00 22.5 13 Sudoeste 20 Sudoeste 0 -- -- 83
2019-08-09 09:00:00 21.8 14 Sudoeste 19 Oeste 0 -- -- 85
2019-08-09 08:00:00 21.6 12 Sudoeste 19 Oeste 0 -- -- 86
2019-08-09 07:00:00 21.9 12 Oeste 21 Sudoeste 0 -- -- 83
2019-08-09 06:00:00 21.7 12 Oeste 15 Sudoeste 0 -- -- 83
2019-08-09 05:00:00 21.6 7 Oeste 20 Oeste 0 -- -- 83
2019-08-09 04:00:00 21.6 15 Oeste 23 Oeste 0 -- -- 83
2019-08-09 03:00:00 21.9 13 Oeste 21 Noroeste 0 -- -- 82
2019-08-09 02:00:00 21.8 9 Oeste 22 Oeste 0 -- -- 82
2019-08-09 01:00:00 22.3 15 Oeste 23 Oeste 0 -- -- 79
2019-08-09 00:00:00 23.5 13 Oeste 31 Noroeste 0 -- -- 72
2019-08-08 23:00:00 24.8 15 Noroeste 36 Noroeste 0 -- -- 65
2019-08-08 22:00:00 26.6 24 Noroeste 36 Noroeste 0 -- -- 61
2019-08-08 21:00:00 29.3 26 Noroeste 41 Noroeste 0 -- -- 54
2019-08-08 20:00:00 31.6 21 Oeste 43 Oeste 0 -- -- 41
2019-08-08 19:00:00 32 22 Oeste 37 Oeste 0 -- -- 38
2019-08-08 18:00:00 32.3 21 Oeste 33 Oeste 0 -- -- 39
2019-08-08 17:00:00 32.2 21 Oeste 36 Oeste 0 -- -- 36
2019-08-08 16:00:00 31.7 21 Oeste 33 Oeste 0 -- -- 41
2019-08-08 15:00:00 30.6 16 Oeste 29 Oeste 0 -- -- 45
2019-08-08 14:00:00 29.4 15 Oeste 23 Noroeste 0 -- -- 48
2019-08-08 13:00:00 27.9 9 Oeste 19 Oeste 0 -- -- 55
2019-08-08 12:00:00 25.8 8 Oeste 18 Oeste 0 -- -- 64
2019-08-08 11:00:00 23.7 5 Oeste 11 Oeste 0 -- -- 70
2019-08-08 10:00:00 21.2 6 Oeste 10 Noroeste 0 -- -- 78
2019-08-08 09:00:00 20 3 Noroeste 8 Oeste 0 -- -- 83
2019-08-08 08:00:00 17.9 2 Sudeste 3 Sudeste 0 -- -- 87
2019-08-08 07:00:00 18.3 0 Calma 3 Noroeste 0 -- -- 87
2019-08-08 06:00:00 18.3 0 Calma 4 Noroeste 0 -- -- 82
2019-08-08 05:00:00 18.8 0 Calma 4 Sur 0 -- -- 78
2019-08-08 04:00:00 19.8 3 Sur 9 Noroeste 0 -- -- 75
2019-08-08 03:00:00 20.9 4 Oeste 15 Noroeste 0 -- -- 71
2019-08-08 02:00:00 21.9 10 Oeste 16 Oeste 0 -- -- 69
2019-08-08 01:00:00 23.3 9 Noroeste 15 Noroeste 0 -- -- 62
2019-08-08 00:00:00 24.4 3 Sudoeste 6 Sur 0 -- -- 53
2019-08-07 23:00:00 24.8 4 Sur 6 Sur 0 -- -- 52
2019-08-07 22:00:00 25.9 3 Sur 7 Oeste 0 -- -- 49
2019-08-07 21:00:00 27.6 6 Oeste 17 Noroeste 0 -- -- 45
2019-08-07 20:00:00 27.7 12 Oeste 15 Oeste 0 -- -- 46
2019-08-07 19:00:00 28.9 6 Nordeste 17 Oeste 0 -- -- 43
2019-08-07 18:00:00 26.4 4 Noroeste 10 Norte 0 -- -- 54
2019-08-07 17:00:00 25.8 9 Norte 15 Norte 0 -- -- 59
2019-08-07 16:00:00 26.1 8 Noroeste 17 Noroeste 0 -- -- 55
2019-08-07 15:00:00 25.7 10 Noroeste 18 Noroeste 0 -- -- 56
2019-08-07 14:00:00 26.8 6 Nordeste 18 Norte 0 -- -- 51
2019-08-07 13:00:00 25.3 8 Noroeste 22 Nordeste 0 -- -- 58
2019-08-07 12:00:00 24.9 9 Norte 17 Noroeste 0 -- -- 60
2019-08-07 11:00:00 22.6 8 Norte 14 Norte 0 -- -- 70
2019-08-07 10:00:00 20.6 3 Norte 10 Oeste 0 -- -- 78
2019-08-07 09:00:00 19.2 5 Noroeste 12 Noroeste 0 -- -- 85
2019-08-07 08:00:00 18.5 7 Noroeste 11 Noroeste 0 -- -- 86
2019-08-07 07:00:00 18.9 6 Noroeste 10 Oeste 0 -- -- 83
2019-08-07 06:00:00 19.4 7 Noroeste 13 Noroeste 0 -- -- 80
2019-08-07 05:00:00 19.7 7 Noroeste 13 Noroeste 0 -- -- 79
2019-08-07 04:00:00 20.2 5 Oeste 14 Noroeste 0 -- -- 77
2019-08-07 03:00:00 21.1 10 Noroeste 16 Noroeste 0 -- -- 73
2019-08-07 02:00:00 21.9 10 Noroeste 17 Noroeste 0 -- -- 70
2019-08-07 01:00:00 23.2 8 Noroeste 18 Noroeste 0 -- -- 64
2019-08-07 00:00:00 24.3 9 Noroeste 29 Noroeste 0 -- -- 60
2019-08-06 23:00:00 25.9 16 Noroeste 26 Noroeste 0 -- -- 54
2019-08-06 22:00:00 27.5 17 Noroeste 28 Noroeste 0 -- -- 48
2019-08-06 21:00:00 29.9 18 Noroeste 31 Noroeste 0 -- -- 41
2019-08-06 20:00:00 32.1 22 Noroeste 31 Oeste 0 -- -- 37
2019-08-06 19:00:00 33.5 18 Noroeste 29 Oeste 0 -- -- 33
2019-08-06 18:00:00 32.8 15 Oeste 27 Oeste 0 -- -- 34
2019-08-06 17:00:00 33.2 14 Noroeste 28 Oeste 0 -- -- 33
2019-08-06 16:00:00 32 16 Oeste 28 Oeste 0 -- -- 37
2019-08-06 15:00:00 30.7 14 Oeste 25 Oeste 0 -- -- 40
2019-08-06 14:00:00 28.7 14 Oeste 23 Oeste 0 -- -- 45
2019-08-06 13:00:00 26.9 13 Noroeste 22 Oeste 0 -- -- 53
2019-08-06 12:00:00 24.8 12 Oeste 18 Oeste 0 -- -- 62
2019-08-06 11:00:00 22.1 9 Oeste 17 Oeste 0 -- -- 71
2019-08-06 10:00:00 19.9 8 Oeste 15 Sur 0 -- -- 76
2019-08-06 09:00:00 18.2 9 Sudeste 13 Sudeste 0 -- -- 78
2019-08-06 08:00:00 15.9 5 Este 11 Norte 0 -- -- 84
2019-08-06 07:00:00 17.1 8 Norte 12 Norte 0 -- -- 87
2019-08-06 06:00:00 17.9 7 Norte 13 Noroeste 0 -- -- 83
2019-08-06 05:00:00 18.3 4 Oeste 8 Noroeste 0 -- -- 73
2019-08-06 04:00:00 19.4 0 Calma 8 Noroeste 0 -- -- 67
2019-08-06 03:00:00 20.5 7 Noroeste 10 Noroeste 0 -- -- 61
2019-08-06 02:00:00 22.1 4 Noroeste 10 Norte 0 -- -- 52
2019-08-06 01:00:00 23.8 3 Norte 30 Noroeste 0 -- -- 46
2019-08-06 00:00:00 25.8 20 Norte 32 Noroeste 0 -- -- 42
2019-08-05 23:00:00 27.8 18 Noroeste 28 Norte 0 -- -- 40
2019-08-05 22:00:00 29.8 10 Noroeste 21 Noroeste 0 -- -- 30
2019-08-05 21:00:00 32.7 15 Noroeste 28 Oeste 0 -- -- 25
2019-08-05 20:00:00 34.3 14 Noroeste 27 Oeste 0 -- -- 23
2019-08-05 19:00:00 34.5 15 Oeste 36 Sudoeste 0 -- -- 21
2019-08-05 18:00:00 34.6 15 Noroeste 32 Oeste 0 -- -- 20
2019-08-05 17:00:00 34.1 15 Noroeste 30 Noroeste 0 -- -- 20
2019-08-05 16:00:00 32.6 15 Oeste 23 Oeste 0 -- -- 21
2019-08-05 15:00:00 31 14 Noroeste 23 Oeste 0 -- -- 23
2019-08-05 14:00:00 28.7 12 Noroeste 23 Oeste 0 -- -- 33
2019-08-05 13:00:00 26 9 Oeste 19 Sudoeste 0 -- -- 44
2019-08-05 12:00:00 23.6 5 Oeste 13 Noroeste 0 -- -- 52
2019-08-05 11:00:00 21.2 4 Sudoeste 10 Oeste 0 -- -- 61
2019-08-05 10:00:00 19.7 2 Nordeste 6 Nordeste 0 -- -- 66
2019-08-05 09:00:00 17.4 3 Este 6 Sudeste 0 -- -- 74
2019-08-05 08:00:00 14.3 2 Nordeste 2 Nordeste 0 -- -- 86
2019-08-05 07:00:00 15 0 Calma 6 Noroeste 0 -- -- 82
2019-08-05 06:00:00 15.6 4 Norte 12 Noroeste 0 -- -- 79
2019-08-05 05:00:00 16.8 8 Noroeste 10 Noroeste 0 -- -- 77
2019-08-05 04:00:00 18.2 5 Noroeste 12 Norte 0 -- -- 70
2019-08-05 03:00:00 19.2 6 Noroeste 12 Noroeste 0 -- -- 67
2019-08-05 02:00:00 20.4 6 Noroeste 15 Noroeste 0 -- -- 63
2019-08-05 01:00:00 21.9 12 Noroeste 22 Noroeste 0 -- -- 58
2019-08-05 00:00:00 24.2 11 Noroeste 24 Norte 0 -- -- 50
2019-08-04 23:00:00 26.2 17 Noroeste 27 Norte 0 -- -- 46
2019-08-04 22:00:00 28.1 15 Noroeste 30 Noroeste 0 -- -- 41
2019-08-04 21:00:00 30.9 18 Noroeste 30 Noroeste 0 -- -- 36
2019-08-04 20:00:00 33.1 19 Noroeste 29 Noroeste 0 -- -- 31
2019-08-04 19:00:00 34 16 Noroeste 30 Noroeste 0 -- -- 29
2019-08-04 18:00:00 34.6 16 Noroeste 28 Noroeste 0 -- -- 28
2019-08-04 17:00:00 34.1 15 Oeste 29 Noroeste 0 -- -- 28
2019-08-04 16:00:00 33.4 16 Noroeste 27 Noroeste 0 -- -- 30
2019-08-04 15:00:00 31.9 14 Noroeste 31 Oeste 0 -- -- 34
2019-08-04 14:00:00 30 11 Noroeste 23 Noroeste 0 -- -- 39
2019-08-04 13:00:00 26.8 9 Oeste 19 Oeste 0 -- -- 50
2019-08-04 12:00:00 24.2 8 Oeste 15 Noroeste 0 -- -- 59
2019-08-04 11:00:00 21.8 6 Sudoeste 13 Noroeste 0 -- -- 70
2019-08-04 10:00:00 20.1 3 Sur 9 Noroeste 0 -- -- 78
2019-08-04 09:00:00 18.1 3 Noroeste 6 Noroeste 0 -- -- 86
2019-08-04 08:00:00 16.4 2 Sudoeste 4 Oeste 0 -- -- 88
2019-08-04 07:00:00 17.1 2 Sudoeste 9 Noroeste 0 -- -- 86
2019-08-04 06:00:00 17.7 2 Oeste 12 Norte 0 -- -- 83
2019-08-04 05:00:00 18.6 5 Norte 11 Norte 0 -- -- 80
2019-08-04 04:00:00 19.4 8 Norte 15 Norte 0 -- -- 75
2019-08-04 03:00:00 20.7 10 Noroeste 15 Noroeste 0 -- -- 69
2019-08-04 02:00:00 22.1 9 Noroeste 14 Noroeste 0 -- -- 62
2019-08-04 01:00:00 23.5 9 Noroeste 17 Noroeste 0 -- -- 53
2019-08-04 00:00:00 25.4 10 Noroeste 29 Norte 0 -- -- 47
2019-08-03 23:00:00 27.3 16 Norte 35 Norte 0 -- -- 46
2019-08-03 22:00:00 30.1 19 Noroeste 28 Noroeste 0 -- -- 39
2019-08-03 21:00:00 32.7 9 Oeste 24 Oeste 0 -- -- 29
2019-08-03 20:00:00 33.8 10 Oeste 26 Noroeste 0 -- -- 27
2019-08-03 19:00:00 34.1 12 Oeste 26 Noroeste 0 -- -- 26
2019-08-03 18:00:00 33.7 14 Oeste 26 Oeste 0 -- -- 25
2019-08-03 17:00:00 32.5 15 Sudoeste 32 Oeste 0 -- -- 32
2019-08-03 16:00:00 31.6 18 Oeste 29 Oeste 0 -- -- 29
2019-08-03 15:00:00 30 16 Oeste 27 Oeste 0 -- -- 34
2019-08-03 14:00:00 27.6 14 Oeste 21 Oeste 0 -- -- 43
2019-08-03 13:00:00 25.1 11 Oeste 21 Oeste 0 -- -- 47
2019-08-03 12:00:00 23.1 10 Oeste 18 Sudoeste 0 -- -- 56
2019-08-03 11:00:00 20.9 9 Sudoeste 16 Oeste 0 -- -- 64
2019-08-03 10:00:00 18.5 5 Sur 12 Sur 0 -- -- 72
2019-08-03 09:00:00 16.1 6 Sudoeste 9 Sudoeste 0 -- -- 81
2019-08-03 08:00:00 14.8 4 Sudoeste 8 Sudoeste 0 -- -- 82
2019-08-03 07:00:00 15.5 4 Sudoeste 6 Oeste 0 -- -- 78
2019-08-03 06:00:00 16.3 4 Sudoeste 10 Oeste 0 -- -- 75
2019-08-03 05:00:00 17.2 4 Sudoeste 9 Oeste 0 -- -- 71
2019-08-03 04:00:00 18.5 4 Sudoeste 9 Oeste 0 -- -- 69
2019-08-03 03:00:00 20.5 4 Oeste 11 Noroeste 0 -- -- 59
2019-08-03 02:00:00 21.6 7 Noroeste 12 Noroeste 0 -- -- 57
2019-08-03 01:00:00 23.4 10 Noroeste 17 Noroeste 0 -- -- 52
2019-08-03 00:00:00 25.5 10 Noroeste 26 Norte 0 -- -- 49
2019-08-02 23:00:00 27.6 17 Norte 29 Noroeste 0 -- -- 47
2019-08-02 22:00:00 30.1 11 Noroeste 20 Oeste 0 -- -- 33
2019-08-02 21:00:00 32.5 12 Oeste 24 Noroeste 0 -- -- 27
2019-08-02 20:00:00 34 13 Noroeste 25 Oeste 0 -- -- 24
2019-08-02 19:00:00 34.2 8 Noroeste 22 Noroeste 0 -- -- 24
2019-08-02 18:00:00 34.3 8 Oeste 22 Oeste 0 -- -- 25
2019-08-02 17:00:00 32.8 12 Oeste 22 Oeste 0 -- -- 27
2019-08-02 16:00:00 31.3 12 Noroeste 23 Noroeste 0 -- -- 31
2019-08-02 15:00:00 29.3 13 Oeste 20 Oeste 0 -- -- 36
2019-08-02 14:00:00 26.8 10 Noroeste 19 Oeste 0 -- -- 42
2019-08-02 13:00:00 24.5 11 Oeste 20 Oeste 0 -- -- 50
2019-08-02 12:00:00 22 9 Oeste 17 Oeste 0 -- -- 56
2019-08-02 11:00:00 20.2 5 Oeste 11 Noroeste 0 -- -- 64
2019-08-02 10:00:00 18 4 Noroeste 8 Norte 0 -- -- 73
2019-08-02 09:00:00 16.2 0 Calma 4 Sudeste 0 -- -- 77
2019-08-02 08:00:00 13.7 2 Norte 5 Nordeste 0 -- -- 85
2019-08-02 07:00:00 14.4 6 Nordeste 8 Nordeste 0 -- -- 84
2019-08-02 06:00:00 14.7 3 Norte 8 Norte 0 -- -- 78
2019-08-02 05:00:00 15.9 2 Sur 14 Norte 0 -- -- 72
2019-08-02 04:00:00 16.8 10 Norte 15 Noroeste 0 -- -- 69
2019-08-02 03:00:00 18.2 8 Noroeste 14 Noroeste 0 -- -- 59
2019-08-02 02:00:00 19.9 7 Noroeste 16 Norte 0 -- -- 44
2019-08-02 01:00:00 21.8 9 Noroeste 24 Noroeste 0 -- -- 48
2019-08-02 00:00:00 24 13 Noroeste 27 Noroeste 0 -- -- 44
2019-08-01 23:00:00 26.2 18 Norte 30 Noroeste 0 -- -- 38
2019-08-01 22:00:00 28.3 17 Noroeste 32 Noroeste 0 -- -- 32
2019-08-01 21:00:00 31.2 23 Noroeste 35 Noroeste 0 -- -- 28
2019-08-01 20:00:00 33.2 19 Noroeste 31 Noroeste 0 -- -- 24
2019-08-01 19:00:00 34.3 13 Noroeste 30 Noroeste 0 -- -- 23
2019-08-01 18:00:00 34.4 12 Noroeste 27 Noroeste 0 -- -- 23
2019-08-01 17:00:00 33.6 14 Noroeste 31 Noroeste 0 -- -- 24
2019-08-01 16:00:00 32.3 13 Oeste 23 Oeste 0 -- -- 30
2019-08-01 15:00:00 30.7 8 Oeste 19 Noroeste 0 -- -- 34
2019-08-01 14:00:00 27.8 10 Oeste 23 Noroeste 0 -- -- 39
2019-08-01 13:00:00 25.7 13 Oeste 21 Sur 0 -- -- 47
2019-08-01 12:00:00 23.4 12 Sudoeste 19 Sudoeste 0 -- -- 54
2019-08-01 11:00:00 21 9 Sudoeste 16 Sudoeste 0 -- -- 61
2019-08-01 10:00:00 18.5 7 Sudoeste 13 Sudoeste 0 -- -- 69
2019-08-01 09:00:00 16.5 6 Sudoeste 9 Oeste 0 -- -- 75
2019-08-01 08:00:00 15.3 3 Sur 5 Sur 0 -- -- 75
2019-08-01 07:00:00 15.6 3 Sudoeste 7 Oeste 0 -- -- 71
2019-08-01 06:00:00 16.6 3 Sudoeste 10 Oeste 0 -- -- 66
2019-08-01 05:00:00 17.9 6 Oeste 13 Oeste 0 -- -- 63
2019-08-01 04:00:00 19.4 3 Sudoeste 8 Noroeste 0 -- -- 55
2019-08-01 03:00:00 21 5 Noroeste 11 Norte 0 -- -- 52
2019-08-01 02:00:00 22.6 6 Norte 9 Norte 0 -- -- 47
2019-08-01 01:00:00 23.6 3 Noroeste 6 Norte 0 -- -- 44
2019-08-01 00:00:00 24.6 0 Calma 7 Nordeste 0 -- -- 42
2019-07-31 23:00:00 25.8 6 Nordeste 14 Norte 0 -- -- 39
2019-07-31 22:00:00 27.2 12 Norte 31 Norte 0 -- -- 37
2019-07-31 21:00:00 28.4 29 Norte 41 Norte 0 -- -- 35
2019-07-31 20:00:00 34.6 15 Noroeste 28 Noroeste 0 -- -- 18
2019-07-31 19:00:00 35 14 Noroeste 27 Oeste 0 -- -- 17
2019-07-31 18:00:00 34.8 18 Oeste 32 Noroeste 0 -- -- 18
2019-07-31 17:00:00 34.5 15 Oeste 31 Oeste 0 -- -- 18
2019-07-31 16:00:00 34.1 15 Oeste 38 Sudoeste 0 -- -- 18
2019-07-31 15:00:00 33.1 13 Oeste 30 Oeste 0 -- -- 19
2019-07-31 14:00:00 32.4 10 Norte 18 Noroeste 0 -- -- 21
2019-07-31 13:00:00 30.2 10 Noroeste 19 Noroeste 0 -- -- 26
2019-07-31 12:00:00 27.1 7 Noroeste 15 Noroeste 0 -- -- 36
2019-07-31 11:00:00 24.5 5 Norte 12 Norte 0 -- -- 40
2019-07-31 10:00:00 20.7 6 Norte 10 Nordeste 0 -- -- 51
2019-07-31 09:00:00 17.8 6 Nordeste 10 Nordeste 0 -- -- 61
2019-07-31 08:00:00 14.3 2 Este 9 Nordeste 0 -- -- 72
2019-07-31 07:00:00 14.3 0 Calma 12 Nordeste 0 -- -- 71
2019-07-31 06:00:00 15.7 8 Nordeste 18 Nordeste 0 -- -- 67
2019-07-31 05:00:00 16.2 9 Nordeste 17 Nordeste 0 -- -- 65
2019-07-31 04:00:00 16 0 Calma 4 Norte 0 -- -- 65
2019-07-31 03:00:00 17.3 2 Nordeste 10 Norte 0 -- -- 61
2019-07-31 02:00:00 18.6 6 Nordeste 13 Norte 0 -- -- 56
2019-07-31 01:00:00 20.4 6 Norte 25 Norte 0 -- -- 52
2019-07-31 00:00:00 22 21 Norte 37 Norte 0 -- -- 49
2019-07-30 23:00:00 24.4 24 Norte 37 Norte 0 -- -- 43
2019-07-30 22:00:00 27.3 8 Norte 16 Nordeste 0 -- -- 22
2019-07-30 21:00:00 30 14 Nordeste 27 Nordeste 0 -- -- 19
2019-07-30 20:00:00 30.9 18 Nordeste 31 Nordeste 0 -- -- 18
2019-07-30 19:00:00 31.2 14 Nordeste 28 Norte 0 -- -- 18
2019-07-30 18:00:00 31.2 20 Nordeste 36 Nordeste 0 -- -- 17
2019-07-30 17:00:00 31.3 15 Nordeste 36 Nordeste 0 -- -- 19
2019-07-30 16:00:00 30.6 17 Norte 35 Norte 0 -- -- 19
2019-07-30 15:00:00 29.1 17 Nordeste 32 Nordeste 0 -- -- 21
2019-07-30 14:00:00 27.9 18 Norte 35 Noroeste 0 -- -- 24
2019-07-30 13:00:00 26.3 17 Nordeste 29 Nordeste 0 -- -- 29
2019-07-30 12:00:00 23.5 15 Nordeste 28 Nordeste 0 -- -- 37
2019-07-30 11:00:00 21.1 13 Nordeste 24 Norte 0 -- -- 46
2019-07-30 10:00:00 18.5 12 Nordeste 21 Nordeste 0 -- -- 56
2019-07-30 09:00:00 15.6 10 Nordeste 19 Norte 0 -- -- 69
2019-07-30 08:00:00 13.5 9 Nordeste 19 Nordeste 0 -- -- 78
2019-07-30 07:00:00 13.7 11 Nordeste 18 Nordeste 0 -- -- 77
2019-07-30 06:00:00 13.8 8 Nordeste 13 Nordeste 0 -- -- 77
2019-07-30 05:00:00 14.1 5 Norte 9 Norte 0 -- -- 74
2019-07-30 04:00:00 14.8 0 Calma 9 Nordeste 0 -- -- 72
2019-07-30 03:00:00 16.1 6 Norte 23 Norte 0 -- -- 67
2019-07-30 02:00:00 17.3 16 Norte 24 Norte 0 -- -- 61
2019-07-30 01:00:00 18.8 17 Norte 27 Norte 0 -- -- 53
2019-07-30 00:00:00 20.3 19 Norte 35 Norte 0 -- -- 49
2019-07-29 23:00:00 22.1 22 Norte 34 Norte 0 -- -- 45
2019-07-29 22:00:00 24 24 Norte 36 Norte 0 -- -- 41
2019-07-29 21:00:00 27 24 Norte 37 Norte 0 -- -- 33
2019-07-29 20:00:00 29 22 Norte 36 Norte 0 -- -- 30
2019-07-29 19:00:00 30 21 Norte 35 Norte 0 -- -- 29
2019-07-29 18:00:00 30.5 22 Noroeste 35 Noroeste 0 -- -- 30
2019-07-29 17:00:00 29.9 16 Noroeste 36 Noroeste 0 -- -- 32
2019-07-29 16:00:00 29.5 18 Norte 31 Norte 0 -- -- 34
2019-07-29 15:00:00 27.8 13 Norte 27 Norte 0 -- -- 41
2019-07-29 14:00:00 26.2 16 Noroeste 36 Noroeste 0 -- -- 51
2019-07-29 13:00:00 25.1 17 Noroeste 37 Noroeste 0 -- -- 57
2019-07-29 12:00:00 23.6 17 Norte 29 Norte 0 -- -- 62
2019-07-29 11:00:00 22 20 Norte 30 Norte 0 -- -- 68
2019-07-29 10:00:00 17.9 4 Oeste 10 Oeste 0 -- -- 76
2019-07-29 09:00:00 16 5 Oeste 8 Oeste 0 -- -- 78
2019-07-29 08:00:00 14.8 3 Sudoeste 15 Noroeste 0 -- -- 79
2019-07-29 07:00:00 15 8 Noroeste 14 Noroeste 0 -- -- 74
2019-07-29 06:00:00 15.3 8 Noroeste 12 Noroeste 0 -- -- 71
2019-07-29 05:00:00 16.4 8 Noroeste 12 Norte 0 -- -- 70
2019-07-29 04:00:00 17.9 5 Norte 14 Norte 0 -- -- 62
2019-07-29 03:00:00 19 9 Norte 15 Noroeste 0 -- -- 67
2019-07-29 02:00:00 20.6 5 Noroeste 19 Noroeste 0 -- -- 61
2019-07-29 01:00:00 22.3 13 Noroeste 30 Norte 0 -- -- 56
2019-07-29 00:00:00 24 18 Noroeste 32 Noroeste 0 -- -- 51
2019-07-28 23:00:00 26 17 Noroeste 35 Noroeste 0 -- -- 48
2019-07-28 22:00:00 28.7 9 Noroeste 20 Oeste 0 -- -- 39
2019-07-28 21:00:00 30.4 12 Oeste 23 Oeste 0 -- -- 37
2019-07-28 20:00:00 31.8 15 Noroeste 23 Noroeste 0 -- -- 34
2019-07-28 19:00:00 31.8 15 Noroeste 25 Norte 0 -- -- 32
2019-07-28 18:00:00 31.1 12 Oeste 46 Oeste 0 -- -- 35
2019-07-28 17:00:00 30.3 13 Nordeste 23 Noroeste 0 -- -- 38
2019-07-28 16:00:00 29.4 10 Noroeste 22 Noroeste 0 -- -- 41
2019-07-28 15:00:00 27.7 12 Sudoeste 23 Noroeste 0 -- -- 45
2019-07-28 14:00:00 26.8 12 Noroeste 22 Noroeste 0 -- -- 49
2019-07-28 13:00:00 25.3 7 Sudoeste 18 Oeste 0 -- -- 54
2019-07-28 12:00:00 23 5 Oeste 15 Oeste 0 -- -- 62
2019-07-28 11:00:00 21.1 3 Sudeste 10 Oeste 0 -- -- 70
2019-07-28 10:00:00 18.6 4 Oeste 8 Noroeste 0 -- -- 79
2019-07-28 09:00:00 16.7 0 Calma 3 Sudeste 0 -- -- 86
2019-07-28 08:00:00 14.5 0 Calma 4 Sudeste 0 -- -- 91
2019-07-28 07:00:00 14.9 0 Calma 5 Norte 0 -- -- 90
2019-07-28 06:00:00 15.4 3 Norte 5 Norte 0 -- -- 87
2019-07-28 05:00:00 15.7 0 Calma 5 Norte 0 -- -- 85
2019-07-28 04:00:00 16.6 0 Calma 5 Noroeste 0 -- -- 81
2019-07-28 03:00:00 17.7 2 Noroeste 14 Noroeste 0 -- -- 77
2019-07-28 02:00:00 18.5 9 Noroeste 14 Noroeste 0 -- -- 74
2019-07-28 01:00:00 19.1 8 Noroeste 13 Noroeste 0 -- -- 74
2019-07-28 00:00:00 20.1 9 Oeste 23 Oeste 0 -- -- 72
2019-07-27 23:00:00 21.5 18 Oeste 26 Oeste 0 -- -- 68
2019-07-26 12:00:00 -- -- -- -- -- -- -- -- --
2019-07-26 11:00:00 20.7 9 Noroeste 19 Noroeste 0 -- -- 63
2019-07-26 10:00:00 18.2 14 Noroeste 21 Noroeste 0 -- -- 73
2019-07-26 09:00:00 16.6 8 Noroeste 14 Noroeste 0 -- -- 82
2019-07-26 08:00:00 14.9 6 Oeste 11 Noroeste 0 -- -- 88
2019-07-26 07:00:00 15.4 0 Calma 11 Norte 0 -- -- 82
2019-07-26 06:00:00 16.3 6 Noroeste 14 Noroeste 0 -- -- 79
2019-07-26 05:00:00 17.6 12 Noroeste 18 Noroeste 0 -- -- 72
2019-07-26 04:00:00 18.7 8 Noroeste 15 Norte 0 -- -- 73
2019-07-26 03:00:00 19.4 11 Noroeste 23 Noroeste 0 -- -- 72
2019-07-26 02:00:00 20.5 12 Noroeste 22 Noroeste 0 -- -- 75
2019-07-26 01:00:00 21.6 10 Noroeste 19 Noroeste 0 -- -- 74
2019-07-26 00:00:00 22.4 13 Noroeste 29 Noroeste 0 -- -- 71